Time;durP1;ratioP1;P1;durP2;ratioP2;P2;SDS_P1;SDS_P2;PMS_P1;PMS_P2;Temp;Humidity;BMP_temperature;BMP_pressure;BME280_temperature;BME280_humidity;BME280_pressure;Samples;Min_cycle;Max_cycle;Signal;HPM_P1;HPM_P2
2022/08/16 00:15:12;;;;;;;9.87;6.30;;;;;;;22.97;55.59;100479.16;5861374;24;20280;-63
2022/08/16 00:17:38;;;;;;;7.57;6.55;;;;;;;22.83;56.70;100487.03;5949659;24;20020;-57
2022/08/16 00:20:07;;;;;;;9.43;6.65;;;;;;;22.77;56.74;100483.59;6017331;23;20563;-57
2022/08/16 00:22:34;;;;;;;8.75;6.55;;;;;;;22.81;56.65;100483.75;6138310;23;20014;-58
2022/08/16 00:25:00;;;;;;;6.78;6.07;;;;;;;22.81;56.61;100487.41;6149040;23;20089;-57
2022/08/16 00:27:25;;;;;;;7.40;6.50;;;;;;;22.82;56.17;100491.06;6148083;23;20033;-58
2022/08/16 00:29:51;;;;;;;7.05;6.35;;;;;;;22.82;56.43;100488.22;6147911;23;20065;-57
2022/08/16 00:32:16;;;;;;;8.68;6.72;;;;;;;22.71;56.53;100499.13;6148278;23;20012;-57
2022/08/16 00:34:42;;;;;;;8.82;6.45;;;;;;;22.69;56.66;100499.47;6150430;23;20084;-59
2022/08/16 00:37:07;;;;;;;9.13;6.22;;;;;;;22.78;56.31;100491.72;6151036;23;20345;-58
2022/08/16 00:39:33;;;;;;;7.20;6.40;;;;;;;22.76;56.32;100496.94;6149410;23;20006;-58
2022/08/16 00:41:58;;;;;;;6.85;6.03;;;;;;;22.74;56.71;100499.25;6150679;23;20009;-58
2022/08/16 00:44:24;;;;;;;7.22;6.47;;;;;;;22.79;56.46;100493.41;6151125;23;20422;-59
2022/08/16 00:46:56;;;;;;;10.02;6.72;;;;;;;22.79;56.34;100501.91;6150359;23;20041;-59
2022/08/16 00:49:23;;;;;;;7.85;7.05;;;;;;;22.74;56.71;100496.44;6149363;23;20363;-58
2022/08/16 00:51:51;;;;;;;9.32;7.60;;;;;;;22.65;57.05;100509.00;6151632;23;20112;-59
2022/08/16 00:54:19;;;;;;;10.57;8.32;;;;;;;22.63;57.36;100506.50;6149716;23;20847;-58
2022/08/16 00:56:49;;;;;;;11.73;7.85;;;;;;;22.59;57.24;100501.88;6151055;23;20006;-58
2022/08/16 00:59:17;;;;;;;9.02;7.75;;;;;;;22.62;57.41;100515.31;6149627;23;20016;-58
2022/08/16 01:01:43;;;;;;;11.20;8.35;;;;;;;22.54;57.70;100508.56;6150097;23;20021;-59
2022/08/16 01:04:09;;;;;;;10.82;8.50;;;;;;;22.57;57.35;100505.03;6150969;23;20088;-59
2022/08/16 01:06:37;;;;;;;10.85;8.85;;;;;;;22.57;57.28;100502.22;6151564;23;20465;-58
2022/08/16 01:09:05;;;;;;;12.70;8.05;;;;;;;22.57;57.42;100507.06;6148548;23;20338;-59
2022/08/16 01:11:33;;;;;;;12.40;7.93;;;;;;;22.58;57.39;100506.69;6149357;23;20014;-58
2022/08/16 01:14:20;;;;;;;12.38;8.60;;;;;;;22.64;56.93;100504.50;6149367;23;20087;-59
2022/08/16 01:16:46;;;;;;;9.65;8.65;;;;;;;22.60;57.56;100503.50;6150307;23;20473;-58
2022/08/16 01:19:22;;;;;;;15.95;8.93;;;;;;;22.50;57.74;100501.91;6180173;23;20012;-58
2022/08/16 01:21:58;;;;;;;10.85;8.85;;;;;;;22.57;57.67;100498.56;6179640;23;20406;-58
2022/08/16 01:24:29;;;;;;;9.60;8.55;;;;;;;22.51;57.73;100500.75;6179836;23;20438;-58
2022/08/16 01:27:19;;;;;;;11.55;9.10;;;;;;;22.61;57.13;100500.34;6180065;23;20135;-59
2022/08/16 01:30:01;;;;;;;10.68;7.78;;;;;;;22.62;57.48;100512.50;6180186;23;20005;-58
2022/08/16 01:32:29;;;;;;;11.75;9.70;;;;;;;22.57;57.61;100507.06;6180413;23;20009;-58
2022/08/16 01:34:55;;;;;;;14.50;9.75;;;;;;;22.55;57.75;100501.72;6177820;23;20097;-58
2022/08/16 01:37:20;;;;;;;12.30;9.82;;;;;;;22.51;57.78;100503.56;6179816;23;20024;-58
2022/08/16 01:39:45;;;;;;;11.40;9.85;;;;;;;22.53;57.67;100501.25;6180374;23;20080;-58
2022/08/16 01:42:11;;;;;;;15.25;10.25;;;;;;;22.46;57.87;100500.94;6180480;23;20064;-58
2022/08/16 01:44:38;;;;;;;15.30;11.02;;;;;;;22.42;57.91;100512.13;6179462;23;20039;-58
2022/08/16 01:47:04;;;;;;;15.25;10.98;;;;;;;22.45;57.86;100505.78;6182983;23;19997;-58
2022/08/16 01:49:33;;;;;;;13.05;11.75;;;;;;;22.41;57.84;100506.81;6182006;23;20482;-59
2022/08/16 01:52:03;;;;;;;11.50;10.25;;;;;;;22.43;57.91;100501.63;6181546;23;20001;-58
2022/08/16 01:54:28;;;;;;;12.05;10.40;;;;;;;22.46;57.67;100500.94;6183558;23;20136;-58
2022/08/16 01:56:55;;;;;;;12.20;10.05;;;;;;;22.45;57.70;100504.97;6182334;23;20029;-58
2022/08/16 01:59:20;;;;;;;10.68;9.60;;;;;;;22.49;57.56;100505.94;6184607;23;20005;-58
2022/08/16 02:01:49;;;;;;;15.75;10.95;;;;;;;22.43;57.60;100508.09;6183716;23;20028;-58
2022/08/16 02:04:14;;;;;;;11.75;10.57;;;;;;;22.41;57.59;100509.63;6182528;23;20792;-58
2022/08/16 02:06:41;;;;;;;13.70;10.95;;;;;;;22.27;57.91;100505.03;6183650;23;20029;-59
2022/08/16 02:09:08;;;;;;;11.80;10.40;;;;;;;22.31;57.96;100508.00;6184440;23;20091;-58
2022/08/16 02:11:36;;;;;;;13.80;10.30;;;;;;;22.34;58.09;100515.00;6181391;23;20703;-58
2022/08/16 02:14:01;;;;;;;16.15;10.45;;;;;;;22.35;57.69;100509.00;6184399;23;20306;-58
2022/08/16 02:16:26;;;;;;;12.63;11.02;;;;;;;22.27;57.83;100513.50;6183453;23;20013;-59
2022/08/16 02:18:52;;;;;;;12.95;10.15;;;;;;;22.36;57.65;100510.66;6183837;23;20009;-58
2022/08/16 02:21:20;;;;;;;8.98;7.97;;;;;;;22.42;57.42;100511.28;6184030;23;20013;-58
2022/08/16 02:23:46;;;;;;;12.55;9.60;;;;;;;22.41;57.47;100513.28;6182428;23;20541;-58
2022/08/16 02:26:11;;;;;;;17.20;10.05;;;;;;;22.38;57.39;100510.31;6180234;23;20005;-58
2022/08/16 02:28:37;;;;;;;14.13;10.98;;;;;;;22.30;57.78;100507.19;6183751;23;20009;-58
2022/08/16 02:31:07;;;;;;;15.10;12.18;;;;;;;22.24;58.03;100510.53;6183427;23;20001;-58
2022/08/16 02:33:33;;;;;;;14.75;12.60;;;;;;;22.18;58.18;100512.75;6182372;23;20016;-58
2022/08/16 02:35:59;;;;;;;12.52;11.20;;;;;;;22.20;57.93;100503.91;6182511;23;20023;-58
2022/08/16 02:38:28;;;;;;;14.88;12.48;;;;;;;22.16;58.15;100498.09;6184015;23;20032;-58
2022/08/16 02:40:55;;;;;;;13.30;11.98;;;;;;;22.08;58.48;100504.59;6181188;23;20008;-59
2022/08/16 02:43:26;;;;;;;14.63;12.90;;;;;;;22.06;58.38;100499.28;6182911;23;20012;-59
2022/08/16 02:45:56;;;;;;;17.73;13.68;;;;;;;21.98;58.82;100502.16;6183299;23;20492;-59
2022/08/16 02:48:21;;;;;;;14.38;12.88;;;;;;;22.05;58.46;100503.28;6183116;23;20028;-59
2022/08/16 02:50:46;;;;;;;13.85;11.38;;;;;;;22.17;58.10;100499.78;6181348;23;20425;-59
2022/08/16 02:53:12;;;;;;;13.93;12.52;;;;;;;22.13;58.39;100493.16;6182758;23;20021;-59
2022/08/16 02:55:38;;;;;;;15.52;12.52;;;;;;;22.09;58.41;100491.31;6183799;23;20429;-59
2022/08/16 02:58:04;;;;;;;16.55;13.60;;;;;;;21.96;58.91;100496.84;6183644;23;20005;-59
2022/08/16 03:00:30;;;;;;;17.60;13.38;;;;;;;22.02;58.69;100489.00;6181398;23;20575;-59
2022/08/16 03:02:56;;;;;;;14.88;13.25;;;;;;;22.01;58.76;100490.19;6181927;23;20463;-59
2022/08/16 03:05:22;;;;;;;15.32;12.52;;;;;;;22.06;58.56;100481.50;6183606;23;20048;-59
2022/08/16 03:07:48;;;;;;;15.77;11.77;;;;;;;22.04;58.46;100493.13;6182563;23;20009;-59
2022/08/16 03:10:13;;;;;;;15.30;13.60;;;;;;;21.99;58.61;100481.19;6183909;23;20033;-60
2022/08/16 03:12:39;;;;;;;16.55;12.55;;;;;;;22.02;58.39;100491.84;6182213;23;20005;-60
2022/08/16 03:15:06;;;;;;;12.85;11.55;;;;;;;22.04;58.27;100487.47;6183102;23;20063;-59
2022/08/16 03:17:31;;;;;;;12.93;11.63;;;;;;;22.05;58.57;100482.69;6182669;23;20001;-59
2022/08/16 03:19:57;;;;;;;12.88;11.48;;;;;;;22.04;58.50;100478.19;6182410;23;20009;-59
2022/08/16 03:22:23;;;;;;;14.68;11.18;;;;;;;22.01;58.66;100493.00;6182881;23;20029;-59
2022/08/16 03:24:48;;;;;;;13.15;10.77;;;;;;;22.00;58.62;100491.34;6183727;23;20016;-59
2022/08/16 03:27:13;;;;;;;15.95;11.57;;;;;;;21.96;58.77;100487.53;6182798;23;20009;-59
2022/08/16 03:29:39;;;;;;;15.00;12.48;;;;;;;21.93;58.96;100483.41;6181269;23;20037;-59
2022/08/16 03:32:04;;;;;;;16.63;12.85;;;;;;;21.87;58.97;100486.75;6183530;23;20005;-59
2022/08/16 03:34:32;;;;;;;20.52;14.10;;;;;;;21.83;59.03;100485.75;6182789;23;20047;-59
2022/08/16 03:36:58;;;;;;;12.38;10.27;;;;;;;21.94;58.85;100492.72;6182669;23;20073;-59
2022/08/16 03:39:24;;;;;;;14.70;13.38;;;;;;;21.88;58.85;100497.69;6182595;23;20400;-59
2022/08/16 03:41:50;;;;;;;12.15;10.88;;;;;;;21.90;58.90;100489.72;6183228;23;20532;-59
2022/08/16 03:44:15;;;;;;;12.15;10.85;;;;;;;21.91;58.84;100488.56;6181199;23;20021;-59
2022/08/16 03:46:42;;;;;;;15.05;13.63;;;;;;;21.87;59.13;100500.88;6184077;23;20107;-59
2022/08/16 03:49:10;;;;;;;16.38;14.43;;;;;;;21.79;59.25;100499.72;6182944;23;20371;-59
2022/08/16 03:51:36;;;;;;;17.23;14.10;;;;;;;21.71;59.44;100498.59;6182193;23;20012;-59
2022/08/16 03:54:01;;;;;;;16.15;14.25;;;;;;;21.73;59.45;100501.91;6183317;23;20005;-59
2022/08/16 03:56:27;;;;;;;17.30;14.80;;;;;;;21.71;59.63;100509.88;6182982;23;20092;-59
2022/08/16 03:58:55;;;;;;;17.25;15.52;;;;;;;21.70;59.85;100513.06;6181691;23;20060;-58
2022/08/16 04:01:21;;;;;;;17.55;14.18;;;;;;;21.65;59.91;100511.22;6181318;23;20087;-59
2022/08/16 04:03:47;;;;;;;13.30;11.90;;;;;;;21.71;59.60;100515.53;6181792;23;20036;-59
2022/08/16 04:06:12;;;;;;;16.95;15.15;;;;;;;21.67;60.05;100519.38;6182978;23;20429;-59
2022/08/16 04:08:37;;;;;;;18.38;15.75;;;;;;;21.67;60.06;100522.22;6182435;23;20005;-58
2022/08/16 04:11:03;;;;;;;15.27;13.77;;;;;;;21.69;59.98;100526.38;6181024;23;20001;-59
2022/08/16 04:13:30;;;;;;;23.45;16.88;;;;;;;21.59;60.03;100523.88;6183480;23;20329;-59
2022/08/16 04:15:58;;;;;;;15.63;13.98;;;;;;;21.62;60.22;100526.03;6183289;23;20082;-59
2022/08/16 04:18:24;;;;;;;18.90;16.63;;;;;;;21.64;60.14;100532.16;6180233;23;20002;-59
2022/08/16 04:20:49;;;;;;;19.02;17.13;;;;;;;21.55;60.53;100518.06;6184288;23;20013;-59
2022/08/16 04:23:14;;;;;;;17.08;15.35;;;;;;;21.66;60.14;100529.84;6185589;23;20132;-59
2022/08/16 04:25:40;;;;;;;17.10;15.30;;;;;;;21.66;60.46;100529.03;6182422;23;20012;-59
2022/08/16 04:28:05;;;;;;;20.85;16.73;;;;;;;21.50;60.73;100531.56;6184494;23;20013;-59
2022/08/16 04:30:31;;;;;;;16.35;13.43;;;;;;;21.63;60.10;100529.69;6184740;23;20417;-58
2022/08/16 04:32:56;;;;;;;13.93;12.52;;;;;;;21.65;60.21;100530.16;6184276;23;20333;-59
2022/08/16 04:35:22;;;;;;;16.00;14.38;;;;;;;21.62;60.30;100531.69;6185295;23;20405;-58
2022/08/16 04:37:49;;;;;;;17.33;14.40;;;;;;;21.63;60.27;100526.88;6183786;23;20001;-58
2022/08/16 04:40:16;;;;;;;17.65;14.35;;;;;;;21.63;60.46;100524.88;6183242;23;20011;-58
2022/08/16 04:42:41;;;;;;;15.25;13.65;;;;;;;21.62;60.25;100523.22;6185006;23;20009;-59
2022/08/16 04:45:12;;;;;;;19.40;16.25;;;;;;;21.57;60.52;100531.84;6184019;23;20012;-59
2022/08/16 04:47:38;;;;;;;16.85;15.10;;;;;;;21.62;60.49;100533.69;6183945;23;20025;-58
2022/08/16 04:50:08;;;;;;;15.45;13.88;;;;;;;21.59;60.49;100540.81;6185736;23;20012;-59
2022/08/16 04:52:33;;;;;;;20.30;17.58;;;;;;;21.50;60.76;100540.03;6184268;23;20015;-58
2022/08/16 04:54:58;;;;;;;19.42;16.75;;;;;;;21.48;60.90;100537.50;6183455;23;20021;-58
2022/08/16 04:57:24;;;;;;;18.20;16.38;;;;;;;21.51;60.68;100533.19;6184826;23;20009;-58
2022/08/16 04:59:49;;;;;;;16.45;14.65;;;;;;;21.60;60.47;100536.00;6184329;23;20080;-59
2022/08/16 05:02:14;;;;;;;16.95;13.32;;;;;;;21.63;60.32;100541.81;6180370;23;20022;-59
2022/08/16 05:04:40;;;;;;;17.48;15.80;;;;;;;21.61;60.39;100537.66;6183640;23;20453;-59
2022/08/16 05:07:05;;;;;;;20.08;16.73;;;;;;;21.54;60.94;100546.66;6182627;23;20009;-59
2022/08/16 05:09:30;;;;;;;17.45;15.63;;;;;;;21.61;60.40;100541.31;6180865;23;20009;-58
2022/08/16 05:11:56;;;;;;;18.80;14.93;;;;;;;21.64;60.31;100543.47;6182699;23;20009;-58
2022/08/16 05:14:21;;;;;;;18.48;16.58;;;;;;;21.61;60.54;100548.94;6181792;23;20016;-59
2022/08/16 05:16:46;;;;;;;17.15;14.27;;;;;;;21.66;60.39;100545.97;6183596;23;20024;-59
2022/08/16 05:19:11;;;;;;;14.90;13.25;;;;;;;21.65;60.51;100545.13;6182093;23;20366;-58
2022/08/16 05:21:37;;;;;;;18.15;15.82;;;;;;;21.62;60.54;100556.28;6183241;23;20009;-58
2022/08/16 05:24:03;;;;;;;15.40;13.60;;;;;;;21.66;60.47;100546.78;6183745;23;20418;-58
2022/08/16 05:26:31;;;;;;;22.23;17.83;;;;;;;21.54;60.92;100566.44;6182723;23;20016;-58
2022/08/16 05:28:58;;;;;;;18.25;16.13;;;;;;;21.61;60.52;100568.72;6183963;23;20044;-58
2022/08/16 05:31:28;;;;;;;16.38;14.60;;;;;;;21.66;60.33;100565.75;6182638;23;20005;-58
2022/08/16 05:33:53;;;;;;;19.63;17.30;;;;;;;21.53;60.67;100570.38;6182433;23;20100;-58
2022/08/16 05:36:18;;;;;;;14.18;11.63;;;;;;;21.69;60.23;100567.88;6181407;23;20152;-58
2022/08/16 05:38:44;;;;;;;19.55;17.40;;;;;;;21.56;60.46;100566.91;6181784;23;20417;-58
2022/08/16 05:41:10;;;;;;;22.70;17.02;;;;;;;21.59;60.46;100569.06;6184031;23;20008;-59
2022/08/16 05:43:36;;;;;;;17.65;12.32;;;;;;;21.69;60.52;100565.06;6180881;23;20005;-58
2022/08/16 05:46:01;;;;;;;24.25;17.30;;;;;;;21.56;60.68;100584.69;6182664;23;20088;-58
2022/08/16 05:48:26;;;;;;;15.93;14.20;;;;;;;21.65;60.32;100583.84;6183106;23;20047;-59
2022/08/16 05:50:52;;;;;;;19.65;17.42;;;;;;;21.58;60.45;100581.53;6176194;23;20361;-59
2022/08/16 05:54:17;;;;;;;16.77;11.98;;;;;;;21.73;59.83;100580.16;6170713;23;20008;-62
2022/08/16 05:57:53;;;;;;;15.10;13.60;;;;;;;21.70;59.85;100572.38;6173436;23;20099;-64
2022/08/16 06:01:17;;;;;;;17.70;15.63;;;;;;;21.66;59.72;100571.41;6147980;23;20009;-62
2022/08/16 06:12:03;;;;;;;18.75;16.55;;;;;;;21.75;59.32;100598.44;6045552;23;20420;-65
2022/08/16 06:18:28;;;;;;;;;;;;;;;;;;;;;
2022/08/16 06:21:45;;;;;;;18.38;15.25;;;;;;;21.90;59.20;100605.56;6152588;23;20092;-61
2022/08/16 06:25:42;;;;;;;16.98;14.57;;;;;;;21.94;59.04;100597.25;6116721;23;20063;-69
2022/08/16 07:00:23;;;;;;;11.57;9.23;;;;;;;22.66;56.80;100615.31;5785615;24;20492;-62
2022/08/16 07:18:18;;;;;;;11.05;10.00;;;;;;;22.96;56.43;100628.34;5758965;24;20768;-62
2022/08/16 07:28:08;;;;;;;10.05;8.73;;;;;;;23.13;54.22;100638.69;5908114;24;20473;-61
2022/08/16 08:20:46;;;;;;;11.63;9.80;;;;;;;23.95;54.00;100663.75;6243984;23;20519;-61
2022/08/16 08:23:57;;;;;;;9.68;8.65;;;;;;;24.07;53.52;100677.13;6148443;23;20024;-61
2022/08/16 08:30:51;;;;;;;10.52;9.20;;;;;;;24.16;52.54;100673.03;6128688;23;20244;-63
2022/08/16 08:55:00;;;;;;;;;;;;;;;;;;;;;
2022/08/16 09:05:06;;;;;;;12.65;8.35;;;;;;;24.81;49.73;100693.19;5710133;25;20051;-63
2022/08/16 09:15:40;;;;;;;10.68;7.22;;;;;;;25.04;48.89;100679.34;5805598;24;19943;-62
2022/08/16 09:29:14;;;;;;;11.18;6.32;;;;;;;25.15;47.75;100693.91;5871363;24;20024;-62
2022/08/16 10:38:45;;;;;;;10.18;5.13;;;;;;;26.62;40.72;100697.13;5896841;24;20523;-64
2022/08/16 10:41:11;;;;;;;5.60;4.50;;;;;;;26.65;40.57;100701.28;6004052;23;20033;-65
2022/08/16 10:43:40;;;;;;;8.30;4.20;;;;;;;26.75;40.87;100699.91;6182273;23;20005;-65
2022/08/16 10:46:10;;;;;;;6.93;4.55;;;;;;;26.84;40.63;100697.69;6209330;23;20447;-64
2022/08/16 10:48:36;;;;;;;7.30;4.68;;;;;;;26.95;40.95;100701.63;6211547;23;20001;-63
2022/08/16 10:51:05;;;;;;;7.63;5.20;;;;;;;27.03;40.07;100709.16;6209881;23;20013;-63
2022/08/16 10:53:36;;;;;;;7.60;5.07;;;;;;;27.06;39.80;100696.22;6209749;23;20004;-63
2022/08/16 10:56:05;;;;;;;7.60;5.20;;;;;;;27.22;38.98;100697.06;6208314;23;20004;-61
2022/08/16 10:58:30;;;;;;;8.00;5.45;;;;;;;27.23;39.62;100692.19;6210710;23;20364;-62
2022/08/16 11:00:55;;;;;;;7.03;6.10;;;;;;;27.30;39.88;100700.91;6210697;23;20050;-64
2022/08/16 11:03:21;;;;;;;6.65;5.13;;;;;;;27.35;39.44;100707.16;6209011;23;20005;-63
2022/08/16 11:05:46;;;;;;;9.32;5.72;;;;;;;27.38;38.84;100716.97;6211087;23;20001;-63
2022/08/16 11:08:12;;;;;;;7.60;5.38;;;;;;;27.36;39.11;100716.53;6209210;23;20372;-62
2022/08/16 11:10:41;;;;;;;7.45;4.78;;;;;;;27.37;38.93;100712.47;6209058;23;20086;-63
2022/08/16 11:13:08;;;;;;;7.57;4.85;;;;;;;27.53;39.68;100716.09;6208837;23;20329;-63
2022/08/16 11:15:34;;;;;;;6.78;4.63;;;;;;;27.56;39.21;100714.56;6210820;23;20329;-62
2022/08/16 11:18:01;;;;;;;5.40;4.78;;;;;;;27.53;38.71;100715.28;6235613;23;20031;-64
2022/08/16 11:20:27;;;;;;;6.45;4.43;;;;;;;27.52;38.50;100720.16;6241842;23;20008;-62
2022/08/16 11:22:53;;;;;;;8.68;4.93;;;;;;;27.38;39.18;100714.13;6242662;23;20345;-62
2022/08/16 11:25:21;;;;;;;9.25;4.80;;;;;;;27.30;39.05;100715.16;6239799;23;20008;-63
2022/08/16 11:27:47;;;;;;;5.47;4.30;;;;;;;27.25;38.52;100713.41;6241550;23;20004;-63
2022/08/16 11:30:14;;;;;;;8.63;4.35;;;;;;;27.21;38.61;100709.66;6243135;23;20122;-62
2022/08/16 11:32:43;;;;;;;6.55;5.05;;;;;;;27.21;38.54;100717.38;6243349;23;20089;-62
2022/08/16 11:35:11;;;;;;;6.85;4.70;;;;;;;27.18;38.79;100718.94;6243669;23;20011;-63
2022/08/16 11:37:39;;;;;;;6.03;4.40;;;;;;;27.13;38.45;100734.28;6243516;23;20008;-62
2022/08/16 11:40:06;;;;;;;7.68;4.30;;;;;;;27.05;37.67;100734.44;6243259;23;20123;-62
2022/08/16 11:42:32;;;;;;;7.38;4.07;;;;;;;27.01;37.55;100734.34;6244136;23;20004;-62
2022/08/16 11:44:57;;;;;;;5.78;4.07;;;;;;;26.94;38.01;100731.31;6243387;23;20463;-62
2022/08/16 11:47:23;;;;;;;6.53;4.03;;;;;;;26.89;37.61;100728.75;6243335;23;20008;-62
2022/08/16 11:49:48;;;;;;;6.50;3.97;;;;;;;26.84;37.34;100735.56;6241586;23;20023;-62
2022/08/16 11:52:16;;;;;;;5.90;3.70;;;;;;;26.82;37.36;100739.97;6243419;23;20007;-63
2022/08/16 11:54:42;;;;;;;5.05;3.78;;;;;;;26.76;37.47;100738.56;6243160;23;20000;-62
2022/08/16 11:57:07;;;;;;;6.20;3.50;;;;;;;26.72;37.54;100743.34;6243406;23;20010;-62
2022/08/16 11:59:33;;;;;;;5.63;4.20;;;;;;;26.72;37.82;100743.34;6242876;23;20080;-64
2022/08/16 12:01:59;;;;;;;4.28;3.80;;;;;;;26.71;37.64;100741.69;6240790;23;20325;-63
2022/08/16 12:04:24;;;;;;;5.40;3.67;;;;;;;26.81;37.90;100746.84;6245127;23;20079;-62
2022/08/16 12:06:51;;;;;;;5.85;3.90;;;;;;;26.93;38.32;100741.06;6245187;23;20447;-63
2022/08/16 12:09:16;;;;;;;8.43;3.78;;;;;;;26.99;37.73;100736.72;6240940;23;20066;-63
2022/08/16 12:11:42;;;;;;;4.82;3.75;;;;;;;27.03;38.02;100734.81;6243561;23;20080;-64
2022/08/16 12:14:07;;;;;;;7.40;4.07;;;;;;;27.14;37.41;100735.94;6242733;23;20385;-62
2022/08/16 12:16:34;;;;;;;9.05;3.75;;;;;;;27.27;38.04;100732.97;6242546;23;20052;-62
2022/08/16 12:19:01;;;;;;;9.65;4.07;;;;;;;27.34;36.81;100738.84;6242104;23;20091;-64
2022/08/16 12:21:26;;;;;;;4.43;3.95;;;;;;;27.41;37.28;100741.88;6243305;23;20004;-63
2022/08/16 12:23:52;;;;;;;5.20;3.70;;;;;;;27.38;37.13;100734.06;6242338;23;20015;-63
2022/08/16 12:26:17;;;;;;;5.88;3.72;;;;;;;27.42;36.55;100737.84;6240874;23;20424;-63
2022/08/16 12:28:44;;;;;;;7.03;4.05;;;;;;;27.51;36.48;100744.19;6244776;23;20015;-62
2022/08/16 12:31:09;;;;;;;4.75;3.80;;;;;;;27.53;36.54;100736.06;6241104;23;20035;-62
2022/08/16 12:33:34;;;;;;;8.27;4.20;;;;;;;27.59;36.80;100750.88;6242865;23;20000;-62
2022/08/16 12:36:00;;;;;;;6.10;4.28;;;;;;;27.68;36.27;100748.63;6243201;23;20019;-62
2022/08/16 12:38:26;;;;;;;5.18;4.07;;;;;;;27.65;36.24;100746.53;6242828;23;20022;-62
2022/08/16 12:40:52;;;;;;;5.50;3.75;;;;;;;27.78;36.93;100745.22;6242977;23;20328;-62
2022/08/16 12:43:21;;;;;;;3.70;3.25;;;;;;;27.86;36.44;100749.06;6242373;23;20004;-63
2022/08/16 12:45:50;;;;;;;5.80;3.72;;;;;;;27.79;36.10;100740.38;6243306;23;20008;-63
2022/08/16 12:51:07;;;;;;;4.43;3.47;;;;;;;28.04;35.68;100743.75;6238939;23;20115;-62
2022/08/16 12:53:33;;;;;;;3.90;3.30;;;;;;;28.11;35.34;100736.19;6242055;23;20000;-62
2022/08/16 12:55:59;;;;;;;6.03;3.70;;;;;;;28.18;34.98;100746.06;6240898;23;20016;-62
2022/08/16 12:58:26;;;;;;;4.72;3.38;;;;;;;28.20;34.94;100749.38;6242248;23;20101;-63
2022/08/16 13:00:51;;;;;;;5.80;3.60;;;;;;;28.09;35.07;100743.44;6243464;23;20325;-62
2022/08/16 13:03:18;;;;;;;5.18;3.53;;;;;;;28.11;35.54;100739.03;6241191;23;20015;-63
2022/08/16 13:05:43;;;;;;;4.50;3.35;;;;;;;28.16;34.52;100740.75;6242139;23;20027;-64
2022/08/16 13:08:12;;;;;;;5.28;3.20;;;;;;;28.16;34.52;100731.38;6242490;23;20004;-63
2022/08/16 13:10:38;;;;;;;5.13;3.60;;;;;;;28.20;34.26;100737.97;6242965;23;20004;-63
2022/08/16 13:13:05;;;;;;;4.85;3.53;;;;;;;28.29;33.68;100736.53;6240451;23;20008;-63
2022/08/16 13:15:31;;;;;;;6.43;3.08;;;;;;;28.26;35.40;100733.63;6240423;23;20086;-63
2022/08/16 13:17:56;;;;;;;5.20;3.47;;;;;;;28.31;35.08;100730.47;6241657;23;20085;-63
2022/08/16 13:20:24;;;;;;;5.28;3.92;;;;;;;28.36;35.08;100731.00;6241506;23;20103;-62
2022/08/16 13:22:57;;;;;;;5.38;3.47;;;;;;;28.32;34.65;100732.94;6242956;23;20004;-62
2022/08/16 13:25:27;;;;;;;4.07;3.63;;;;;;;28.37;34.87;100721.25;6239180;23;20015;-62
2022/08/16 13:27:54;;;;;;;5.40;3.88;;;;;;;28.26;34.65;100728.75;6241405;23;20340;-63
2022/08/16 13:30:20;;;;;;;5.93;4.13;;;;;;;28.18;34.82;100734.66;6241461;23;20440;-63
2022/08/16 13:32:46;;;;;;;4.57;3.38;;;;;;;28.14;35.03;100726.88;6243045;23;20015;-62
2022/08/16 13:35:11;;;;;;;4.85;3.80;;;;;;;28.18;34.75;100726.94;6240049;23;20404;-64
2022/08/16 13:37:37;;;;;;;6.28;3.85;;;;;;;28.10;35.71;100725.97;6241987;23;20083;-63
2022/08/16 13:40:04;;;;;;;7.10;4.10;;;;;;;28.09;34.84;100734.88;6242330;23;20011;-62
2022/08/16 13:42:30;;;;;;;6.53;4.00;;;;;;;27.96;34.50;100734.22;6242131;23;20424;-65
2022/08/16 13:44:57;;;;;;;4.18;3.88;;;;;;;27.94;35.41;100739.47;6242034;23;20004;-65
2022/08/16 13:47:22;;;;;;;4.00;3.55;;;;;;;27.87;35.41;100737.28;6240474;23;20016;-61
2022/08/16 13:49:47;;;;;;;5.50;3.75;;;;;;;27.82;35.80;100739.59;6242649;23;20000;-62
2022/08/16 13:52:13;;;;;;;6.60;4.10;;;;;;;27.83;36.51;100733.53;6241097;23;20343;-63
2022/08/16 13:54:38;;;;;;;5.47;3.55;;;;;;;27.81;36.48;100732.25;6242327;23;20038;-61
2022/08/16 13:57:07;;;;;;;4.88;3.67;;;;;;;27.84;35.91;100737.22;6242465;23;20065;-64
2022/08/16 13:59:32;;;;;;;5.13;3.47;;;;;;;27.86;35.71;100734.78;6241306;23;20012;-62
2022/08/16 14:01:58;;;;;;;7.22;4.05;;;;;;;27.87;35.92;100733.63;6240789;23;20032;-63
2022/08/16 14:04:28;;;;;;;7.68;3.63;;;;;;;27.91;36.05;100730.84;6238956;23;20019;-62
2022/08/16 14:07:03;;;;;;;6.20;3.70;;;;;;;27.84;35.75;100735.19;6241559;23;20004;-63
2022/08/16 14:09:30;;;;;;;6.10;3.75;;;;;;;27.89;36.44;100740.59;6240782;23;20035;-62
2022/08/16 14:11:59;;;;;;;4.97;3.70;;;;;;;27.84;35.70;100740.06;6241734;23;20376;-64
2022/08/16 14:14:30;;;;;;;7.27;3.73;;;;;;;27.85;35.12;100739.69;6242921;23;20039;-62
2022/08/16 14:16:58;;;;;;;3.90;3.60;;;;;;;27.81;35.24;100737.94;6240186;23;20031;-62
2022/08/16 14:19:23;;;;;;;6.38;3.80;;;;;;;27.79;36.16;100728.97;6240858;23;20332;-62
2022/08/16 14:21:49;;;;;;;8.05;3.67;;;;;;;27.87;36.69;100736.47;6241018;23;20012;-61
2022/08/16 14:24:14;;;;;;;5.85;3.65;;;;;;;27.95;36.11;100735.44;6239927;23;20003;-63
2022/08/16 14:26:41;;;;;;;7.60;4.05;;;;;;;27.95;35.60;100734.59;6241693;23;20034;-63
2022/08/16 14:29:06;;;;;;;6.93;3.95;;;;;;;27.93;35.88;100737.81;6240415;23;20091;-62
2022/08/16 14:31:34;;;;;;;6.03;3.97;;;;;;;27.94;35.18;100741.47;6240355;23;20028;-63
2022/08/16 14:34:00;;;;;;;4.35;3.60;;;;;;;27.98;35.46;100730.97;6239672;23;20031;-63
2022/08/16 14:36:25;;;;;;;5.05;3.70;;;;;;;27.96;35.64;100734.22;6241369;23;20011;-62
2022/08/16 14:38:51;;;;;;;6.95;3.55;;;;;;;27.95;36.52;100731.75;6239343;23;20046;-63
2022/08/16 14:41:16;;;;;;;4.05;3.65;;;;;;;27.91;35.38;100731.66;6240109;23;20007;-62
2022/08/16 14:43:42;;;;;;;5.18;3.60;;;;;;;27.90;35.14;100730.00;6240117;23;20051;-61
2022/08/16 14:46:07;;;;;;;4.55;3.67;;;;;;;27.92;35.20;100726.78;6239485;23;20011;-63
2022/08/16 14:48:32;;;;;;;5.13;3.72;;;;;;;27.92;35.47;100733.31;6241262;23;20004;-68
2022/08/16 14:51:01;;;;;;;4.45;3.75;;;;;;;27.99;35.52;100736.31;6238658;23;20369;-64
2022/08/16 14:53:29;;;;;;;6.22;4.05;;;;;;;27.97;35.74;100735.84;6240172;23;20008;-63
2022/08/16 14:55:55;;;;;;;6.68;3.72;;;;;;;28.03;35.77;100725.00;6238491;23;20081;-62
2022/08/16 14:58:20;;;;;;;7.00;4.40;;;;;;;28.02;35.87;100724.16;6238015;23;20004;-63
2022/08/16 15:00:47;;;;;;;9.05;4.30;;;;;;;28.01;36.43;100733.91;6239439;23;20454;-61
2022/08/16 15:03:20;;;;;;;8.00;4.45;;;;;;;28.05;36.77;100737.66;6240340;23;20066;-62
2022/08/16 15:05:46;;;;;;;7.30;4.03;;;;;;;28.04;36.41;100732.34;6240415;23;20008;-63
2022/08/16 15:08:17;;;;;;;8.63;4.15;;;;;;;28.06;36.65;100739.34;6240615;23;20155;-62
2022/08/16 15:10:43;;;;;;;6.25;3.90;;;;;;;28.07;36.44;100745.88;6239562;23;20004;-62
2022/08/16 15:13:09;;;;;;;6.20;3.80;;;;;;;28.04;36.56;100743.75;6234297;23;20009;-64
2022/08/16 15:15:36;;;;;;;6.28;4.35;;;;;;;27.98;35.93;100733.81;6237989;23;20344;-62
2022/08/16 15:18:01;;;;;;;7.90;4.07;;;;;;;27.99;35.67;100736.31;6236281;23;20030;-62
2022/08/16 15:20:31;;;;;;;8.73;4.70;;;;;;;27.96;35.48;100733.41;6236875;23;20361;-63
2022/08/16 15:22:59;;;;;;;5.97;4.50;;;;;;;27.93;35.95;100729.25;6235542;23;20073;-61
2022/08/16 15:25:32;;;;;;;6.18;4.00;;;;;;;27.91;36.29;100731.66;6234931;23;20027;-62
2022/08/16 15:28:01;;;;;;;8.98;4.80;;;;;;;27.86;36.09;100734.78;6235737;23;20087;-64
2022/08/16 15:30:27;;;;;;;6.63;3.92;;;;;;;27.79;36.05;100732.63;6238428;23;20004;-61
2022/08/16 15:33:01;;;;;;;5.82;4.32;;;;;;;27.79;36.17;100731.81;6238542;23;20428;-62
2022/08/16 15:35:28;;;;;;;8.05;4.40;;;;;;;27.77;36.16;100728.50;6238842;23;20004;-61
2022/08/16 15:37:53;;;;;;;7.03;4.47;;;;;;;27.74;36.41;100734.94;6237731;23;20050;-62
2022/08/16 15:40:19;;;;;;;7.80;4.00;;;;;;;27.72;36.82;100740.16;6237656;23;20011;-62